createdAt,value
2018-11-01T00:00:53.711Z,12.70
2018-11-01T00:01:53.294Z,10.90
2018-11-01T00:02:53.302Z,11.50
2018-11-01T00:03:53.305Z,10.80
2018-11-01T00:04:53.333Z,9.70
2018-11-01T00:05:53.367Z,10.80
2018-11-01T00:06:53.330Z,10.10
2018-11-01T00:07:53.329Z,9.90
2018-11-01T00:08:53.340Z,9.90
2018-11-01T00:09:53.359Z,9.70
2018-11-01T00:10:53.347Z,9.70
2018-11-01T00:11:53.355Z,9.60
2018-11-01T00:12:53.391Z,9.50
2018-11-01T00:13:53.368Z,9.00
2018-11-01T00:14:53.394Z,9.80
2018-11-01T00:15:53.377Z,8.50
2018-11-01T00:16:53.380Z,8.70
2018-11-01T00:17:53.413Z,9.20
2018-11-01T00:18:53.385Z,8.70
2018-11-01T00:19:53.401Z,8.80
2018-11-01T00:20:54.145Z,9.00
2018-11-01T00:21:53.419Z,9.20
2018-11-01T00:22:54.040Z,8.90
2018-11-01T00:23:53.438Z,8.70
2018-11-01T00:24:53.543Z,8.60
2018-11-01T00:25:53.425Z,8.80
2018-11-01T00:26:53.438Z,8.70
2018-11-01T00:27:53.472Z,8.60
2018-11-01T00:28:53.442Z,8.90
2018-11-01T00:29:53.447Z,8.80
2018-11-01T00:30:53.478Z,9.20
2018-11-01T00:31:53.498Z,9.30
2018-11-01T00:32:53.464Z,9.40
2018-11-01T00:33:53.471Z,9.40
2018-11-01T00:34:53.492Z,9.10
2018-11-01T00:35:53.479Z,10.10
2018-11-01T00:36:53.503Z,9.40
2018-11-01T00:37:53.497Z,9.50
2018-11-01T00:38:53.501Z,9.90
2018-11-01T00:39:53.525Z,9.80
2018-11-01T00:40:53.512Z,10.00
2018-11-01T00:41:53.506Z,9.80
2018-11-01T00:42:53.538Z,9.60
2018-11-01T00:43:53.553Z,10.00
2018-11-01T00:44:53.542Z,10.20
2018-11-01T00:45:53.561Z,10.30
2018-11-01T00:46:53.539Z,9.90
2018-11-01T00:47:53.544Z,9.50
2018-11-01T00:48:53.542Z,10.20
2018-11-01T00:49:53.546Z,9.80
2018-11-01T00:50:53.549Z,10.20
2018-11-01T00:51:53.606Z,9.70
2018-11-01T00:52:53.595Z,10.10
2018-11-01T00:53:53.574Z,10.20
2018-11-01T00:54:53.661Z,10.60
2018-11-01T00:55:53.586Z,10.70
2018-11-01T00:56:53.580Z,10.20
2018-11-01T00:57:53.592Z,10.00
2018-11-01T00:58:53.649Z,10.40
2018-11-01T00:59:53.632Z,10.20
2018-11-01T01:00:53.620Z,11.10
2018-11-01T01:01:53.618Z,10.70
2018-11-01T01:02:53.639Z,10.80
2018-11-01T01:03:53.677Z,11.00
2018-11-01T01:04:53.630Z,11.60
2018-11-01T01:05:53.643Z,11.60
2018-11-01T01:06:53.653Z,11.60
2018-11-01T01:07:53.649Z,12.30
2018-11-01T01:08:53.665Z,11.30
2018-11-01T01:09:53.678Z,10.60
2018-11-01T01:10:53.665Z,10.80
2018-11-01T01:11:53.669Z,11.00
2018-11-01T01:16:13.192Z,10.90
2018-11-01T01:17:13.170Z,11.50
2018-11-01T01:18:13.170Z,11.10
2018-11-01T01:19:13.171Z,11.30
2018-11-01T01:20:13.205Z,11.50
2018-11-01T01:21:13.218Z,11.20
2018-11-01T01:22:13.220Z,11.70
2018-11-01T01:23:13.192Z,11.30
2018-11-01T01:24:13.205Z,11.70
2018-11-01T01:25:13.226Z,11.60
2018-11-01T01:26:13.242Z,11.70
2018-11-01T01:27:13.229Z,11.50
2018-11-01T01:28:13.226Z,12.80
2018-11-01T01:29:13.225Z,12.00
2018-11-01T01:30:13.238Z,11.70
2018-11-01T01:31:13.257Z,12.20
2018-11-01T01:32:13.240Z,11.70
2018-11-01T01:33:13.262Z,12.10
2018-11-01T01:34:13.730Z,11.70
2018-11-01T01:35:13.252Z,11.80
2018-11-01T01:36:13.279Z,12.30
2018-11-01T01:37:13.297Z,12.00
2018-11-01T01:38:13.268Z,12.00
2018-11-01T01:39:13.269Z,12.20
2018-11-01T01:40:13.298Z,12.20
2018-11-01T01:41:13.345Z,12.10
2018-11-01T01:42:13.313Z,12.00
2018-11-01T01:43:13.293Z,11.60
2018-11-01T01:44:13.304Z,11.50
2018-11-01T01:45:13.314Z,12.40
2018-11-01T01:46:13.366Z,12.20
2018-11-01T01:47:13.732Z,11.90
2018-11-01T01:48:13.364Z,12.60
2018-11-01T01:49:13.337Z,12.20
2018-11-01T01:50:13.382Z,12.80
2018-11-01T01:51:13.339Z,12.50
2018-11-01T01:52:13.344Z,12.60
2018-11-01T01:53:13.407Z,12.20
2018-11-01T01:54:13.351Z,12.30
2018-11-01T01:55:13.400Z,12.30
2018-11-01T01:56:13.379Z,11.70
2018-11-01T01:57:13.358Z,12.30
2018-11-01T01:58:13.410Z,12.50
2018-11-01T01:59:13.381Z,12.30
2018-11-01T02:00:13.381Z,12.90
2018-11-01T02:01:13.404Z,12.80
2018-11-01T02:02:13.398Z,13.50
2018-11-01T02:03:13.433Z,12.80
2018-11-01T02:04:13.395Z,13.70
2018-11-01T02:05:13.401Z,13.10
2018-11-01T02:06:13.434Z,12.60
2018-11-01T02:07:13.414Z,12.90
2018-11-01T02:08:13.418Z,13.50
2018-11-01T02:09:13.453Z,13.00
2018-11-01T02:10:13.442Z,13.30
2018-11-01T02:11:13.463Z,13.40
2018-11-01T02:12:13.436Z,12.90
2018-11-01T02:13:13.443Z,12.90
2018-11-01T02:14:13.445Z,13.20
2018-11-01T02:15:13.458Z,13.20
2018-11-01T02:16:13.481Z,13.30
2018-11-01T02:17:13.490Z,12.80
2018-11-01T02:18:13.493Z,13.30
2018-11-01T02:19:13.507Z,13.80
2018-11-01T02:20:13.497Z,13.00
2018-11-01T02:21:13.491Z,13.50
2018-11-01T02:22:13.500Z,14.20
2018-11-01T02:23:13.512Z,13.20
2018-11-01T02:24:13.498Z,14.10
2018-11-01T02:25:13.518Z,13.40
2018-11-01T02:26:13.516Z,13.40
2018-11-01T02:27:13.522Z,13.70
2018-11-01T02:28:13.566Z,13.90
2018-11-01T02:29:13.558Z,13.70
2018-11-01T02:30:13.638Z,13.80
2018-11-01T02:31:13.530Z,14.00
2018-11-01T02:32:13.570Z,13.60
2018-11-01T02:33:13.544Z,13.60
2018-11-01T02:34:13.575Z,14.50
2018-11-01T02:35:13.575Z,14.50
2018-11-01T02:36:13.560Z,13.90
2018-11-01T02:37:13.565Z,14.00
2018-11-01T02:38:13.660Z,13.50
2018-11-01T02:39:13.596Z,13.90
2018-11-01T02:40:13.599Z,14.10
2018-11-01T02:41:13.583Z,13.80
2018-11-01T02:42:13.583Z,14.10
2018-11-01T02:43:13.597Z,14.30
2018-11-01T02:44:13.615Z,14.60
2018-11-01T02:45:13.668Z,14.60
2018-11-01T02:46:13.613Z,13.90
2018-11-01T02:47:13.611Z,14.20
2018-11-01T02:48:13.635Z,14.30
2018-11-01T02:49:13.647Z,13.70
2018-11-01T02:50:13.629Z,14.30
2018-11-01T02:51:13.658Z,13.90
2018-11-01T02:52:13.647Z,14.30
2018-11-01T02:53:13.641Z,15.00
2018-11-01T02:54:13.678Z,15.00
2018-11-01T02:55:13.653Z,14.40
2018-11-01T02:56:13.678Z,14.60
2018-11-01T02:57:13.688Z,14.90
2018-11-01T02:58:13.667Z,15.00
2018-11-01T02:59:13.700Z,14.50
2018-11-01T03:00:13.761Z,14.60
2018-11-01T03:01:13.692Z,14.90
2018-11-01T03:02:13.703Z,14.20
2018-11-01T03:03:13.710Z,15.50
2018-11-01T03:04:13.726Z,15.00
2018-11-01T03:05:13.700Z,14.20
2018-11-01T03:06:13.715Z,15.00
2018-11-01T03:07:13.720Z,14.70
2018-11-01T03:08:13.746Z,15.20
2018-11-01T03:09:13.738Z,14.70
2018-11-01T03:10:13.725Z,14.80
2018-11-01T03:11:13.730Z,14.90
2018-11-01T03:12:13.742Z,14.40
2018-11-01T03:13:13.741Z,15.20
2018-11-01T03:14:13.776Z,14.70
2018-11-01T03:15:13.770Z,15.10
2018-11-01T03:16:13.766Z,15.40
2018-11-01T03:17:13.850Z,15.00
2018-11-01T03:18:13.766Z,15.50
2018-11-01T03:19:13.791Z,15.50
2018-11-01T03:20:13.789Z,15.90
2018-11-01T03:21:13.776Z,16.30
2018-11-01T03:22:13.806Z,16.20
2018-11-01T03:23:13.787Z,15.70
2018-11-01T03:24:13.830Z,16.50
2018-11-01T03:25:13.812Z,16.10
2018-11-01T03:26:13.861Z,15.40
2018-11-01T03:27:13.805Z,16.90
2018-11-01T03:28:13.811Z,15.50
2018-11-01T03:29:13.844Z,15.60
2018-11-01T03:30:13.820Z,15.70
2018-11-01T03:31:13.871Z,16.40
2018-11-01T03:32:13.836Z,16.10
2018-11-01T03:33:13.846Z,16.30
2018-11-01T03:34:13.913Z,15.60
2018-11-01T03:35:13.934Z,16.10
2018-11-01T03:36:13.876Z,16.40
2018-11-01T03:37:13.853Z,16.10
2018-11-01T03:38:14.060Z,16.60
2018-11-01T03:39:13.872Z,16.40
2018-11-01T03:40:13.872Z,17.00
2018-11-01T03:41:13.902Z,16.50
2018-11-01T03:42:13.883Z,16.20
2018-11-01T03:43:13.953Z,16.50
2018-11-01T03:44:13.890Z,16.20
2018-11-01T03:45:13.911Z,16.40
2018-11-01T03:46:13.904Z,16.80
2018-11-01T03:47:13.906Z,16.00
2018-11-01T03:48:13.910Z,16.70
2018-11-01T03:49:13.932Z,16.20
2018-11-01T03:50:13.918Z,16.10
2018-11-01T03:51:13.922Z,16.00
2018-11-01T03:52:13.946Z,16.10
2018-11-01T03:53:13.992Z,16.80
2018-11-01T03:54:13.973Z,15.70
2018-11-01T03:55:13.949Z,16.20
2018-11-01T03:56:13.948Z,16.60
2018-11-01T03:57:13.954Z,16.70
2018-11-01T03:58:13.967Z,16.70
2018-11-01T03:59:13.978Z,16.90
2018-11-01T04:00:14.027Z,16.50
2018-11-01T04:01:13.971Z,15.30
2018-11-01T04:02:13.979Z,16.50
2018-11-01T04:03:14.007Z,17.10
2018-11-01T04:04:13.998Z,16.30
2018-11-01T04:05:13.996Z,16.80
2018-11-01T04:06:14.030Z,16.90
2018-11-01T04:07:14.016Z,16.60
2018-11-01T04:08:14.022Z,16.30
2018-11-01T04:09:14.019Z,17.10
2018-11-01T04:10:14.063Z,17.20
2018-11-01T04:11:14.019Z,17.30
2018-11-01T04:12:14.023Z,17.50
2018-11-01T04:13:14.033Z,17.40
2018-11-01T04:14:14.038Z,17.20
2018-11-01T04:15:14.125Z,17.10
2018-11-01T04:16:14.068Z,17.40
2018-11-01T04:17:14.077Z,17.30
2018-11-01T04:18:14.101Z,17.60
2018-11-01T04:19:14.061Z,17.10
2018-11-01T04:20:14.064Z,17.30
2018-11-01T04:21:14.076Z,17.60
2018-11-01T04:22:14.097Z,17.40
2018-11-01T04:23:14.103Z,16.90
2018-11-01T04:24:14.148Z,17.40
2018-11-01T04:25:14.095Z,17.80
2018-11-01T04:26:14.091Z,17.80
2018-11-01T04:27:14.094Z,17.50
2018-11-01T04:28:14.100Z,17.50
2018-11-01T04:29:14.111Z,17.40
2018-11-01T04:30:14.134Z,16.90
2018-11-01T04:31:14.136Z,18.20
2018-11-01T04:32:14.125Z,17.40
2018-11-01T04:33:14.169Z,18.20
2018-11-01T04:34:14.136Z,17.70
2018-11-01T04:35:14.179Z,18.10
2018-11-01T04:36:14.160Z,17.50
2018-11-01T04:37:14.146Z,17.70
2018-11-01T04:38:14.169Z,18.50
2018-11-01T04:39:14.155Z,18.30
2018-11-01T04:40:14.185Z,17.90
2018-11-01T04:41:14.167Z,18.00
2018-11-01T04:42:14.212Z,17.70
2018-11-01T04:43:14.234Z,18.10
2018-11-01T04:44:14.191Z,18.20
2018-11-01T04:45:14.214Z,18.10
2018-11-01T04:46:14.209Z,19.30
2018-11-01T04:47:14.237Z,18.70
2018-11-01T04:48:14.217Z,18.90
2018-11-01T04:49:14.224Z,19.20
2018-11-01T04:50:14.205Z,18.30
2018-11-01T04:51:14.212Z,18.60
2018-11-01T04:52:14.220Z,19.30
2018-11-01T04:53:14.243Z,19.60
2018-11-01T04:54:14.229Z,18.00
2018-11-01T04:55:14.243Z,19.80
2018-11-01T04:56:14.245Z,19.80
2018-11-01T04:57:14.237Z,20.20
2018-11-01T04:58:14.274Z,19.80
2018-11-01T04:59:14.255Z,19.90
2018-11-01T05:00:14.282Z,20.20
2018-11-01T05:01:14.258Z,20.30
2018-11-01T05:02:14.273Z,20.00
2018-11-01T05:03:14.317Z,19.50
2018-11-01T05:04:14.332Z,19.90
2018-11-01T05:05:14.417Z,19.90
2018-11-01T05:06:14.284Z,19.40
2018-11-01T05:07:14.293Z,20.30
2018-11-01T05:08:14.295Z,19.30
2018-11-01T05:09:14.300Z,19.80
2018-11-01T05:10:14.373Z,19.70
2018-11-01T05:11:14.312Z,19.90
2018-11-01T05:12:14.311Z,19.50
2018-11-01T05:13:14.329Z,20.10
2018-11-01T05:14:14.320Z,20.50
2018-11-01T05:15:14.418Z,20.30
2018-11-01T05:16:14.333Z,20.00
2018-11-01T05:17:14.339Z,19.50
2018-11-01T05:18:14.342Z,21.00
2018-11-01T05:19:14.342Z,20.20
2018-11-01T05:20:14.406Z,21.40
2018-11-01T05:21:14.392Z,20.90
2018-11-01T05:22:14.362Z,20.60
2018-11-01T05:23:14.367Z,20.90
2018-11-01T05:24:14.408Z,20.80
2018-11-01T05:25:14.374Z,20.80
2018-11-01T05:26:14.383Z,20.70
2018-11-01T05:27:14.401Z,20.70
2018-11-01T05:28:14.414Z,21.80
2018-11-01T05:29:14.446Z,21.50
2018-11-01T05:30:14.412Z,21.40
2018-11-01T05:31:14.407Z,20.60
2018-11-01T05:32:14.420Z,21.10
2018-11-01T05:33:14.511Z,21.00
2018-11-01T05:34:14.430Z,22.50
2018-11-01T05:35:14.441Z,22.50
2018-11-01T05:36:14.444Z,22.30
2018-11-01T05:37:14.434Z,22.80
2018-11-01T05:38:14.455Z,23.40
2018-11-01T05:39:14.459Z,21.90
2018-11-01T05:40:14.440Z,22.30
2018-11-01T05:41:14.453Z,22.40
2018-11-01T05:42:14.489Z,22.70
2018-11-01T05:43:14.464Z,22.80
2018-11-01T05:44:14.486Z,22.00
2018-11-01T05:45:14.509Z,22.50
2018-11-01T05:46:14.483Z,22.70
2018-11-01T05:47:14.476Z,23.30
2018-11-01T05:48:14.486Z,23.30
2018-11-01T05:49:14.507Z,22.40
2018-11-01T05:50:14.517Z,23.30
2018-11-01T05:51:14.503Z,23.60
2018-11-01T05:52:14.501Z,23.40
2018-11-01T05:53:14.511Z,23.60
2018-11-01T05:54:14.517Z,23.90
2018-11-01T05:55:14.562Z,24.20
2018-11-01T05:56:14.563Z,23.90
2018-11-01T05:57:14.529Z,24.10
2018-11-01T05:58:14.536Z,24.30
2018-11-01T05:59:14.538Z,23.70
2018-11-01T06:00:14.594Z,24.10
2018-11-01T06:01:14.558Z,23.80
2018-11-01T06:02:14.547Z,23.80
2018-11-01T06:03:14.662Z,25.40
2018-11-01T06:04:14.557Z,24.00
2018-11-01T06:05:14.607Z,24.00
2018-11-01T06:06:14.590Z,24.00
2018-11-01T06:07:14.569Z,24.90
2018-11-01T06:08:14.582Z,24.80
2018-11-01T06:09:14.595Z,24.30
2018-11-01T06:10:14.594Z,24.30
2018-11-01T06:11:14.626Z,25.40
2018-11-01T06:12:14.609Z,25.90
2018-11-01T06:13:14.600Z,25.20
2018-11-01T06:14:14.602Z,25.20
2018-11-01T06:15:14.665Z,25.10
2018-11-01T06:16:14.639Z,25.50
2018-11-01T06:17:14.679Z,25.60
2018-11-01T06:18:14.623Z,26.20
2018-11-01T06:19:14.635Z,26.70
2018-11-01T06:20:14.648Z,25.80
2018-11-01T06:21:14.661Z,26.80
2018-11-01T06:22:14.672Z,26.00
2018-11-01T06:23:14.648Z,26.90
2018-11-01T06:24:14.673Z,26.30
2018-11-01T06:25:14.684Z,27.60
2018-11-01T06:26:14.753Z,27.70
2018-11-01T06:27:14.686Z,27.50
2018-11-01T06:28:14.721Z,28.20
2018-11-01T06:29:14.680Z,27.10
2018-11-01T06:30:14.693Z,27.10
2018-11-01T06:31:14.693Z,27.20
2018-11-01T06:32:14.702Z,28.10
2018-11-01T06:33:14.728Z,27.10
2018-11-01T06:34:14.734Z,28.20
2018-11-01T06:35:14.728Z,28.30
2018-11-01T06:36:14.709Z,27.10
2018-11-01T06:37:14.721Z,27.10
2018-11-01T06:38:14.728Z,27.10
2018-11-01T06:39:14.798Z,27.90
2018-11-01T06:40:14.731Z,29.10
2018-11-01T06:41:14.734Z,29.20
2018-11-01T06:42:14.761Z,29.90
2018-11-01T06:43:14.742Z,29.10
2018-11-01T06:44:14.768Z,29.00
2018-11-01T06:45:14.791Z,30.30
2018-11-01T06:46:14.869Z,29.70
2018-11-01T06:47:14.771Z,30.40
2018-11-01T06:48:14.805Z,29.90
2018-11-01T06:49:14.772Z,30.90
2018-11-01T06:50:14.797Z,28.80
2018-11-01T06:51:14.801Z,28.70
2018-11-01T06:52:14.800Z,29.10
2018-11-01T06:53:14.821Z,29.90
2018-11-01T06:54:14.796Z,30.20
2018-11-01T06:55:14.799Z,29.40
2018-11-01T06:56:14.854Z,30.20
2018-11-01T06:57:14.824Z,30.60
2018-11-01T06:58:14.865Z,30.60
2018-11-01T06:59:14.990Z,30.00
2018-11-01T07:00:14.845Z,30.90
2018-11-01T07:01:14.867Z,31.00
2018-11-01T07:02:14.862Z,31.80
2018-11-01T07:03:14.838Z,31.30
2018-11-01T07:04:14.851Z,32.40
2018-11-01T07:05:14.861Z,31.40
2018-11-01T07:06:14.894Z,31.80
2018-11-01T07:07:14.877Z,31.70
2018-11-01T07:08:14.923Z,31.70
2018-11-01T07:09:15.070Z,31.70
2018-11-01T07:10:14.879Z,30.40
2018-11-01T07:11:14.994Z,30.80
2018-11-01T07:12:15.282Z,31.60
2018-11-01T07:13:14.935Z,30.70
2018-11-01T07:14:14.916Z,30.30
2018-11-01T07:15:14.906Z,29.20
2018-11-01T07:16:14.929Z,29.60
2018-11-01T07:17:15.304Z,29.80
2018-11-01T07:18:14.965Z,33.40
2018-11-01T07:19:14.913Z,32.00
2018-11-01T07:20:14.936Z,31.10
2018-11-01T07:21:15.237Z,30.70
2018-11-01T07:22:14.944Z,30.40
2018-11-01T07:23:14.953Z,29.10
2018-11-01T07:24:14.993Z,30.00
2018-11-01T07:25:14.954Z,30.60
2018-11-01T07:26:15.119Z,29.60
2018-11-01T07:27:14.975Z,29.60
2018-11-01T07:28:14.971Z,29.30
2018-11-01T07:29:15.055Z,29.20
2018-11-01T07:30:14.969Z,29.30
2018-11-01T07:31:15.015Z,29.40
2018-11-01T07:32:14.971Z,28.90
2018-11-01T07:33:15.057Z,29.30
2018-11-01T07:34:15.029Z,30.30
2018-11-01T07:35:14.999Z,29.70
2018-11-01T07:36:15.100Z,30.20
2018-11-01T07:37:15.009Z,30.20
2018-11-01T07:38:15.029Z,29.60
2018-11-01T07:39:15.009Z,29.60
2018-11-01T07:40:15.045Z,29.80
2018-11-01T07:41:15.024Z,29.60
2018-11-01T07:42:15.054Z,29.90
2018-11-01T07:43:15.029Z,30.50
2018-11-01T07:44:15.040Z,29.70
2018-11-01T07:45:15.090Z,30.10
2018-11-01T07:46:15.067Z,31.50
2018-11-01T07:47:15.056Z,34.50
2018-11-01T07:48:15.141Z,32.90
2018-11-01T07:49:15.068Z,31.90
2018-11-01T07:50:15.096Z,32.20
2018-11-01T07:51:15.106Z,30.80
2018-11-01T07:52:15.099Z,31.20
2018-11-01T07:53:15.084Z,31.20
2018-11-01T07:54:15.108Z,31.60
2018-11-01T07:55:15.187Z,31.50
2018-11-01T07:56:15.141Z,30.50
2018-11-01T07:57:15.205Z,30.10
2018-11-01T07:58:15.128Z,30.10
2018-11-01T07:59:15.121Z,30.80
2018-11-01T08:00:15.134Z,30.00
2018-11-01T08:01:15.190Z,28.90
2018-11-01T08:02:15.138Z,30.10
2018-11-01T08:03:15.173Z,29.70
2018-11-01T08:04:15.229Z,29.80
2018-11-01T08:05:15.146Z,29.30
2018-11-01T08:06:15.182Z,28.00
2018-11-01T08:07:15.176Z,29.90
2018-11-01T08:08:15.198Z,29.60
2018-11-01T08:09:15.215Z,29.50
2018-11-01T08:10:15.189Z,29.90
2018-11-01T08:11:15.193Z,29.60
2018-11-01T08:12:15.268Z,29.70
2018-11-01T08:13:15.217Z,29.30
2018-11-01T08:14:15.192Z,30.20
2018-11-01T08:15:15.199Z,29.40
2018-11-01T08:16:15.201Z,29.60
2018-11-01T08:17:15.264Z,29.60
2018-11-01T08:18:15.260Z,29.70
2018-11-01T08:19:15.247Z,30.60
2018-11-01T08:20:15.501Z,29.00
2018-11-01T08:21:15.448Z,29.30
2018-11-01T08:22:15.396Z,28.40
2018-11-01T08:23:15.317Z,29.30
2018-11-01T08:24:15.283Z,29.30
2018-11-01T08:25:15.266Z,29.00
2018-11-01T08:26:15.306Z,29.20
2018-11-01T08:27:15.388Z,29.60
2018-11-01T08:28:15.272Z,29.30
2018-11-01T08:29:15.311Z,29.80
2018-11-01T08:30:15.627Z,30.30
2018-11-01T08:31:15.441Z,30.20
2018-11-01T08:32:15.307Z,29.00
2018-11-01T08:33:15.300Z,29.50
2018-11-01T08:34:15.307Z,30.10
2018-11-01T08:35:15.600Z,29.70
2018-11-01T08:36:15.333Z,29.50
2018-11-01T08:37:15.450Z,30.50
2018-11-01T08:38:15.367Z,29.70
2018-11-01T08:39:15.355Z,29.20
2018-11-01T08:40:15.409Z,30.60
2018-11-01T08:41:15.385Z,29.60
2018-11-01T08:42:15.360Z,29.20
2018-11-01T08:43:15.556Z,29.70
2018-11-01T08:44:15.381Z,29.80
2018-11-01T08:45:15.694Z,29.10
2018-11-01T08:46:15.388Z,29.60
2018-11-01T08:47:15.373Z,28.90
2018-11-01T08:48:15.716Z,29.80
2018-11-01T08:49:15.731Z,29.40
2018-11-01T08:50:15.543Z,34.70
2018-11-01T08:51:15.441Z,31.60
2018-11-01T08:52:15.408Z,29.30
2018-11-01T08:53:15.466Z,29.50
2018-11-01T08:54:15.417Z,28.80
2018-11-01T08:55:15.490Z,29.00
2018-11-01T08:56:15.432Z,29.60
2018-11-01T08:57:15.433Z,29.60
2018-11-01T08:58:15.442Z,29.30
2018-11-01T08:59:15.477Z,30.20
2018-11-01T09:00:15.459Z,28.40
2018-11-01T09:01:15.471Z,27.40
2018-11-01T09:02:15.458Z,28.90
2018-11-01T09:03:15.473Z,28.80
2018-11-01T09:04:15.663Z,28.60
2018-11-01T09:05:15.509Z,28.70
2018-11-01T09:06:15.519Z,28.10
2018-11-01T09:07:15.520Z,29.20
2018-11-01T09:08:15.512Z,28.80
2018-11-01T09:09:15.542Z,28.30
2018-11-01T09:10:15.523Z,28.50
2018-11-01T09:11:15.517Z,29.30
2018-11-01T09:12:15.528Z,29.00
2018-11-01T09:13:15.733Z,28.20
2018-11-01T09:14:15.610Z,28.20
2018-11-01T09:15:15.723Z,28.70
2018-11-01T09:16:15.637Z,29.40
2018-11-01T09:17:15.553Z,30.00
2018-11-01T09:18:15.562Z,29.60
2018-11-01T09:19:15.638Z,29.40
2018-11-01T09:20:15.626Z,32.40
2018-11-01T09:21:15.577Z,28.80
2018-11-01T09:22:15.595Z,30.40
2018-11-01T09:23:15.623Z,28.50
2018-11-01T09:24:15.608Z,29.10
2018-11-01T09:25:15.705Z,27.30
2018-11-01T09:26:15.622Z,26.60
2018-11-01T09:27:15.669Z,27.50
2018-11-01T09:28:15.622Z,28.10
2018-11-01T09:29:15.662Z,27.40
2018-11-01T09:30:15.722Z,29.50
2018-11-01T09:31:15.644Z,26.70
2018-11-01T09:32:15.692Z,26.90
2018-11-01T09:33:15.668Z,27.00
2018-11-01T09:34:15.662Z,26.40
2018-11-01T09:35:15.670Z,26.80
2018-11-01T09:36:15.724Z,26.60
2018-11-01T09:37:15.681Z,25.50
2018-11-01T09:38:15.694Z,25.60
2018-11-01T09:39:15.716Z,24.60
2018-11-01T09:40:15.729Z,24.00
2018-11-01T09:41:15.710Z,25.00
2018-11-01T09:42:15.716Z,26.80
2018-11-01T09:43:15.723Z,25.40
2018-11-01T09:44:15.727Z,26.00
2018-11-01T09:45:15.774Z,24.60
2018-11-01T09:46:15.826Z,26.00
2018-11-01T09:47:16.160Z,25.40
2018-11-01T09:48:15.780Z,25.40
2018-11-01T09:49:15.770Z,26.90
2018-11-01T09:50:15.770Z,26.60
2018-11-01T09:51:15.783Z,26.70
2018-11-01T09:52:15.792Z,26.80
2018-11-01T09:53:15.807Z,28.00
2018-11-01T09:54:15.799Z,31.10
2018-11-01T09:55:15.802Z,30.90
2018-11-01T09:56:15.885Z,29.20
2018-11-01T09:57:15.959Z,25.70
2018-11-01T09:58:15.860Z,27.00
2018-11-01T09:59:15.843Z,26.30
2018-11-01T10:00:15.854Z,27.50
2018-11-01T10:01:16.113Z,27.30
2018-11-01T10:02:15.875Z,24.90
2018-11-01T10:03:15.996Z,26.40
2018-11-01T10:04:16.026Z,26.60
2018-11-01T10:05:15.870Z,29.90
2018-11-01T10:06:15.880Z,28.20
2018-11-01T10:07:15.883Z,25.00
2018-11-01T10:08:15.923Z,25.10
2018-11-01T10:09:15.964Z,25.70
2018-11-01T10:10:15.916Z,25.20
2018-11-01T10:11:15.918Z,30.10
2018-11-01T10:12:15.927Z,29.80
2018-11-01T10:13:15.936Z,25.80
2018-11-01T10:14:15.984Z,24.00
2018-11-01T10:15:16.142Z,24.20
2018-11-01T10:16:16.177Z,24.60
2018-11-01T10:17:16.460Z,26.30
2018-11-01T10:18:16.386Z,24.10
2018-11-01T10:19:16.018Z,25.00
2018-11-01T10:20:16.005Z,24.80
2018-11-01T10:21:16.048Z,25.00
2018-11-01T10:22:16.053Z,23.70
2018-11-01T10:23:16.012Z,23.90
2018-11-01T10:24:16.022Z,24.60
2018-11-01T10:25:16.099Z,24.10
2018-11-01T10:26:16.045Z,27.90
2018-11-01T10:27:19.509Z,23.50
2018-11-01T10:28:16.039Z,24.10
2018-11-01T10:29:16.056Z,24.10
2018-11-01T10:30:16.048Z,25.00
2018-11-01T10:31:16.094Z,23.50
2018-11-01T10:32:16.075Z,22.10
2018-11-01T10:33:16.097Z,21.60
2018-11-01T10:34:16.091Z,21.80
2018-11-01T10:35:16.125Z,23.10
2018-11-01T10:36:16.111Z,24.10
2018-11-01T10:37:16.094Z,23.10
2018-11-01T10:38:16.161Z,22.30
2018-11-01T10:39:16.109Z,21.30
2018-11-01T10:40:16.109Z,21.60
2018-11-01T10:41:16.169Z,21.10
2018-11-01T10:42:16.139Z,20.60
2018-11-01T10:43:16.137Z,20.90
2018-11-01T10:44:16.185Z,20.30
2018-11-01T10:45:16.280Z,20.80
2018-11-01T10:46:16.176Z,21.80
2018-11-01T10:47:16.161Z,19.30
2018-11-01T10:48:16.173Z,20.20
2018-11-01T10:49:16.244Z,19.60
2018-11-01T10:50:16.195Z,18.60
2018-11-01T10:51:16.217Z,18.20
2018-11-01T10:52:16.213Z,18.30
2018-11-01T10:53:16.216Z,19.20
2018-11-01T10:54:16.289Z,19.10
2018-11-01T10:55:16.261Z,20.50
2018-11-01T10:56:16.223Z,18.70
2018-11-01T10:57:16.240Z,21.60
2018-11-01T10:58:16.243Z,19.70
2018-11-01T10:59:16.241Z,18.80
2018-11-01T11:00:16.414Z,18.80
2018-11-01T11:01:16.457Z,18.80
2018-11-01T11:02:16.289Z,19.90
2018-11-01T11:03:16.314Z,21.90
2018-11-01T11:04:16.279Z,19.70
2018-11-01T11:05:16.310Z,22.60
2018-11-01T11:06:16.320Z,21.60
2018-11-01T11:07:16.348Z,19.30
2018-11-01T11:08:16.314Z,17.50
2018-11-01T11:09:16.324Z,18.40
2018-11-01T11:10:16.643Z,18.30
2018-11-01T11:11:16.369Z,18.50
2018-11-01T11:12:16.377Z,21.80
2018-11-01T11:13:16.340Z,20.60
2018-11-01T11:14:16.400Z,19.40
2018-11-01T11:15:16.412Z,19.30
2018-11-01T11:16:16.365Z,21.00
2018-11-01T11:17:16.430Z,18.00
2018-11-01T11:18:16.420Z,18.70
2018-11-01T11:19:16.395Z,17.30
2018-11-01T11:20:16.480Z,18.80
2018-11-01T11:21:16.706Z,18.20
2018-11-01T11:22:16.409Z,20.50
2018-11-01T11:23:16.456Z,18.80
2018-11-01T11:24:16.502Z,18.90
2018-11-01T11:25:16.555Z,21.20
2018-11-01T11:26:16.440Z,19.00
2018-11-01T11:27:16.516Z,17.80
2018-11-01T11:28:16.473Z,18.10
2018-11-01T11:29:16.476Z,20.70
2018-11-01T11:30:16.649Z,23.40
2018-11-01T11:31:16.488Z,20.50
2018-11-01T11:32:16.492Z,21.80
2018-11-01T11:33:16.512Z,23.00
2018-11-01T11:34:16.509Z,23.10
2018-11-01T11:35:16.557Z,19.30
2018-11-01T11:36:16.536Z,18.70
2018-11-01T11:37:16.584Z,18.00
2018-11-01T11:38:16.542Z,16.90
2018-11-01T11:39:16.631Z,18.10
2018-11-01T11:40:16.625Z,15.80
2018-11-01T11:41:16.556Z,16.50
2018-11-01T11:42:16.557Z,17.90
2018-11-01T11:43:16.576Z,15.30
2018-11-01T11:44:16.631Z,15.40
2018-11-01T11:45:16.583Z,15.20
2018-11-01T11:46:16.631Z,16.40
2018-11-01T11:47:16.617Z,18.20
2018-11-01T11:48:16.616Z,20.70
2018-11-01T11:49:16.623Z,20.50
2018-11-01T11:50:16.678Z,16.90
2018-11-01T11:51:16.680Z,17.80
2018-11-01T11:52:16.659Z,21.60
2018-11-01T11:53:16.683Z,20.20
2018-11-01T11:54:16.673Z,19.60
2018-11-01T11:55:16.666Z,19.40
2018-11-01T11:56:16.670Z,16.80
2018-11-01T11:57:16.753Z,16.80
2018-11-01T11:58:16.784Z,17.10
2018-11-01T11:59:16.689Z,18.00
2018-11-01T12:00:16.704Z,16.00
2018-11-01T12:01:16.750Z,17.20
2018-11-01T12:02:16.824Z,19.00
2018-11-01T12:03:16.736Z,16.40
2018-11-01T12:04:16.736Z,17.80
2018-11-01T12:05:16.782Z,16.70
2018-11-01T12:06:16.975Z,18.20
2018-11-01T12:07:16.755Z,20.20
2018-11-01T12:08:16.783Z,18.50
2018-11-01T12:09:16.845Z,17.60
2018-11-01T12:10:16.797Z,17.20
2018-11-01T12:11:16.834Z,16.80
2018-11-01T12:12:16.808Z,15.10
2018-11-01T12:13:16.809Z,15.80
2018-11-01T12:14:16.893Z,17.00
2018-11-01T12:15:16.921Z,16.20
2018-11-01T12:16:16.829Z,18.20
2018-11-01T12:17:16.836Z,18.30
2018-11-01T12:18:16.853Z,16.90
2018-11-01T12:19:16.862Z,16.20
2018-11-01T12:20:16.905Z,15.80
2018-11-01T12:21:16.967Z,16.30
2018-11-01T12:22:17.018Z,16.30
2018-11-01T12:23:16.885Z,15.30
2018-11-01T12:24:16.993Z,17.40
2018-11-01T12:25:16.945Z,15.60
2018-11-01T12:26:16.913Z,15.70
2018-11-01T12:27:16.921Z,17.80
2018-11-01T12:28:17.011Z,15.30
2018-11-01T12:29:16.938Z,15.30
2018-11-01T12:30:16.987Z,16.30
2018-11-01T12:31:16.950Z,15.20
2018-11-01T12:32:16.981Z,15.20
2018-11-01T12:33:16.963Z,14.40
2018-11-01T12:34:17.008Z,13.30
2018-11-01T12:35:17.013Z,15.30
2018-11-01T12:36:17.000Z,12.30
2018-11-01T12:37:17.044Z,14.60
2018-11-01T12:38:17.037Z,17.00
2018-11-01T12:39:17.011Z,14.30
2018-11-01T12:40:17.028Z,15.30
2018-11-01T12:41:17.033Z,28.80
2018-11-01T12:42:17.042Z,36.60
2018-11-01T12:43:17.065Z,17.30
2018-11-01T12:44:17.056Z,17.10
2018-11-01T12:45:17.168Z,18.30
2018-11-01T12:46:17.068Z,16.10
2018-11-01T12:47:17.085Z,15.20
2018-11-01T12:48:17.120Z,16.60
2018-11-01T12:49:17.115Z,15.40
2018-11-01T12:50:17.241Z,16.80
2018-11-01T12:51:17.108Z,17.90
2018-11-01T12:52:17.271Z,16.60
2018-11-01T12:53:17.138Z,21.60
2018-11-01T12:54:17.138Z,19.00
2018-11-01T12:55:17.143Z,19.40
2018-11-01T12:56:17.217Z,16.70
2018-11-01T12:57:17.176Z,20.40